sensor_id;sensor_type;location;lat;lon;timestamp;P1;durP1;ratioP1;P2;durP2;ratioP2
58123;SDS011;46725;48.068;20.832;2023-02-11T00:01:07;177.70;;;70.18;;
58123;SDS011;46725;48.068;20.832;2023-02-11T00:03:33;169.23;;;67.15;;
58123;SDS011;46725;48.068;20.832;2023-02-11T00:06:00;173.23;;;68.35;;
58123;SDS011;46725;48.068;20.832;2023-02-11T00:08:26;149.18;;;57.60;;
58123;SDS011;46725;48.068;20.832;2023-02-11T00:10:53;134.40;;;54.40;;
58123;SDS011;46725;48.068;20.832;2023-02-11T00:13:19;131.65;;;56.65;;
58123;SDS011;46725;48.068;20.832;2023-02-11T00:15:45;129.10;;;53.17;;
58123;SDS011;46725;48.068;20.832;2023-02-11T00:18:11;137.32;;;57.33;;
58123;SDS011;46725;48.068;20.832;2023-02-11T00:20:38;129.23;;;53.95;;
58123;SDS011;46725;48.068;20.832;2023-02-11T00:23:04;145.95;;;55.85;;
58123;SDS011;46725;48.068;20.832;2023-02-11T00:25:30;149.10;;;59.08;;
58123;SDS011;46725;48.068;20.832;2023-02-11T00:27:56;152.57;;;57.92;;
58123;SDS011;46725;48.068;20.832;2023-02-11T00:30:23;132.05;;;56.95;;
58123;SDS011;46725;48.068;20.832;2023-02-11T00:32:49;138.38;;;53.03;;
58123;SDS011;46725;48.068;20.832;2023-02-11T00:35:15;125.22;;;53.47;;
58123;SDS011;46725;48.068;20.832;2023-02-11T00:37:41;136.80;;;55.50;;
58123;SDS011;46725;48.068;20.832;2023-02-11T00:40:07;136.45;;;56.53;;
58123;SDS011;46725;48.068;20.832;2023-02-11T00:42:34;129.45;;;52.75;;
58123;SDS011;46725;48.068;20.832;2023-02-11T00:45:00;132.25;;;55.03;;
58123;SDS011;46725;48.068;20.832;2023-02-11T00:47:26;133.52;;;54.22;;
58123;SDS011;46725;48.068;20.832;2023-02-11T00:49:52;135.85;;;55.53;;
58123;SDS011;46725;48.068;20.832;2023-02-11T00:52:18;130.27;;;54.22;;
58123;SDS011;46725;48.068;20.832;2023-02-11T00:54:44;133.13;;;54.30;;
58123;SDS011;46725;48.068;20.832;2023-02-11T00:57:10;128.80;;;54.30;;
58123;SDS011;46725;48.068;20.832;2023-02-11T00:59:36;132.02;;;53.25;;
58123;SDS011;46725;48.068;20.832;2023-02-11T01:02:03;130.98;;;50.88;;
58123;SDS011;46725;48.068;20.832;2023-02-11T01:04:29;130.07;;;52.47;;
58123;SDS011;46725;48.068;20.832;2023-02-11T01:06:55;120.10;;;51.35;;
58123;SDS011;46725;48.068;20.832;2023-02-11T01:09:21;138.20;;;56.67;;
58123;SDS011;46725;48.068;20.832;2023-02-11T01:11:47;122.22;;;50.67;;
58123;SDS011;46725;48.068;20.832;2023-02-11T01:14:13;107.32;;;48.90;;
58123;SDS011;46725;48.068;20.832;2023-02-11T01:16:39;105.47;;;45.60;;
58123;SDS011;46725;48.068;20.832;2023-02-11T01:19:05;120.55;;;47.85;;
58123;SDS011;46725;48.068;20.832;2023-02-11T01:21:31;105.20;;;44.58;;
58123;SDS011;46725;48.068;20.832;2023-02-11T01:23:58;126.75;;;46.55;;
58123;SDS011;46725;48.068;20.832;2023-02-11T01:26:24;107.20;;;46.92;;
58123;SDS011;46725;48.068;20.832;2023-02-11T01:28:50;103.88;;;45.25;;
58123;SDS011;46725;48.068;20.832;2023-02-11T01:31:16;112.50;;;45.80;;
58123;SDS011;46725;48.068;20.832;2023-02-11T01:33:42;112.47;;;45.90;;
58123;SDS011;46725;48.068;20.832;2023-02-11T01:36:09;109.47;;;46.38;;
58123;SDS011;46725;48.068;20.832;2023-02-11T01:38:36;109.50;;;43.92;;
58123;SDS011;46725;48.068;20.832;2023-02-11T01:41:04;111.13;;;45.95;;
58123;SDS011;46725;48.068;20.832;2023-02-11T01:43:31;107.00;;;43.38;;
58123;SDS011;46725;48.068;20.832;2023-02-11T01:48:35;110.45;;;45.92;;
58123;SDS011;46725;48.068;20.832;2023-02-11T01:51:05;115.80;;;45.40;;
58123;SDS011;46725;48.068;20.832;2023-02-11T01:53:32;108.80;;;45.53;;
58123;SDS011;46725;48.068;20.832;2023-02-11T01:56:18;123.45;;;49.22;;
58123;SDS011;46725;48.068;20.832;2023-02-11T01:59:05;127.57;;;47.88;;
58123;SDS011;46725;48.068;20.832;2023-02-11T02:01:32;131.82;;;51.92;;
58123;SDS011;46725;48.068;20.832;2023-02-11T02:03:59;130.65;;;53.58;;
58123;SDS011;46725;48.068;20.832;2023-02-11T02:07:00;129.27;;;54.00;;
58123;SDS011;46725;48.068;20.832;2023-02-11T02:09:19;120.63;;;49.60;;
58123;SDS011;46725;48.068;20.832;2023-02-11T02:11:46;122.25;;;50.17;;
58123;SDS011;46725;48.068;20.832;2023-02-11T02:14:13;130.05;;;51.35;;
58123;SDS011;46725;48.068;20.832;2023-02-11T02:16:39;114.50;;;48.67;;
58123;SDS011;46725;48.068;20.832;2023-02-11T02:24:37;115.50;;;47.70;;
58123;SDS011;46725;48.068;20.832;2023-02-11T02:27:14;121.07;;;47.92;;
58123;SDS011;46725;48.068;20.832;2023-02-11T02:37:19;122.00;;;51.05;;
58123;SDS011;46725;48.068;20.832;2023-02-11T02:39:46;122.20;;;49.97;;
58123;SDS011;46725;48.068;20.832;2023-02-11T02:42:13;122.50;;;50.05;;
58123;SDS011;46725;48.068;20.832;2023-02-11T02:44:40;117.10;;;46.83;;
58123;SDS011;46725;48.068;20.832;2023-02-11T02:47:06;130.20;;;49.40;;
58123;SDS011;46725;48.068;20.832;2023-02-11T02:49:32;115.53;;;47.55;;
58123;SDS011;46725;48.068;20.832;2023-02-11T02:59:25;121.65;;;49.95;;
58123;SDS011;46725;48.068;20.832;2023-02-11T03:02:00;96.47;;;39.87;;
58123;SDS011;46725;48.068;20.832;2023-02-11T03:09:27;97.03;;;42.53;;
58123;SDS011;46725;48.068;20.832;2023-02-11T03:11:54;96.85;;;41.10;;
58123;SDS011;46725;48.068;20.832;2023-02-11T03:14:20;93.05;;;39.38;;
58123;SDS011;46725;48.068;20.832;2023-02-11T03:16:48;94.68;;;38.45;;
58123;SDS011;46725;48.068;20.832;2023-02-11T03:19:17;87.25;;;38.05;;
58123;SDS011;46725;48.068;20.832;2023-02-11T03:21:45;90.72;;;39.63;;
58123;SDS011;46725;48.068;20.832;2023-02-11T03:24:16;96.25;;;40.17;;
58123;SDS011;46725;48.068;20.832;2023-02-11T03:26:52;84.93;;;38.42;;
58123;SDS011;46725;48.068;20.832;2023-02-11T03:29:41;93.35;;;39.75;;
58123;SDS011;46725;48.068;20.832;2023-02-11T03:35:06;96.93;;;39.88;;
58123;SDS011;46725;48.068;20.832;2023-02-11T03:37:50;93.47;;;40.60;;
58123;SDS011;46725;48.068;20.832;2023-02-11T03:40:21;112.03;;;42.38;;
58123;SDS011;46725;48.068;20.832;2023-02-11T03:42:49;103.78;;;41.60;;
58123;SDS011;46725;48.068;20.832;2023-02-11T03:45:17;91.47;;;40.40;;
58123;SDS011;46725;48.068;20.832;2023-02-11T03:47:45;94.35;;;41.38;;
58123;SDS011;46725;48.068;20.832;2023-02-11T03:50:12;91.13;;;39.25;;
58123;SDS011;46725;48.068;20.832;2023-02-11T03:52:39;98.10;;;38.30;;
58123;SDS011;46725;48.068;20.832;2023-02-11T03:55:07;95.55;;;39.25;;
58123;SDS011;46725;48.068;20.832;2023-02-11T03:57:35;90.03;;;40.20;;
58123;SDS011;46725;48.068;20.832;2023-02-11T04:00:03;102.70;;;40.50;;
58123;SDS011;46725;48.068;20.832;2023-02-11T04:02:30;106.35;;;42.83;;
58123;SDS011;46725;48.068;20.832;2023-02-11T04:04:57;87.70;;;38.28;;
58123;SDS011;46725;48.068;20.832;2023-02-11T04:07:23;102.32;;;41.85;;
58123;SDS011;46725;48.068;20.832;2023-02-11T04:09:50;95.43;;;41.05;;
58123;SDS011;46725;48.068;20.832;2023-02-11T04:12:16;90.15;;;41.25;;
58123;SDS011;46725;48.068;20.832;2023-02-11T04:14:42;89.68;;;38.70;;
58123;SDS011;46725;48.068;20.832;2023-02-11T04:17:09;104.18;;;42.95;;
58123;SDS011;46725;48.068;20.832;2023-02-11T04:19:35;89.60;;;40.33;;
58123;SDS011;46725;48.068;20.832;2023-02-11T04:22:01;99.97;;;41.17;;
58123;SDS011;46725;48.068;20.832;2023-02-11T04:24:27;97.75;;;40.70;;
58123;SDS011;46725;48.068;20.832;2023-02-11T04:26:53;100.40;;;43.15;;
58123;SDS011;46725;48.068;20.832;2023-02-11T04:29:20;104.70;;;40.88;;
58123;SDS011;46725;48.068;20.832;2023-02-11T04:31:46;94.05;;;40.78;;
58123;SDS011;46725;48.068;20.832;2023-02-11T04:34:12;103.75;;;43.90;;
58123;SDS011;46725;48.068;20.832;2023-02-11T04:36:38;94.20;;;42.58;;
58123;SDS011;46725;48.068;20.832;2023-02-11T04:39:04;103.95;;;43.33;;
58123;SDS011;46725;48.068;20.832;2023-02-11T04:41:30;103.20;;;42.53;;
58123;SDS011;46725;48.068;20.832;2023-02-11T04:43:56;97.75;;;41.42;;
58123;SDS011;46725;48.068;20.832;2023-02-11T04:46:22;99.28;;;41.60;;
58123;SDS011;46725;48.068;20.832;2023-02-11T04:48:48;93.60;;;40.78;;
58123;SDS011;46725;48.068;20.832;2023-02-11T04:51:14;93.10;;;39.75;;
58123;SDS011;46725;48.068;20.832;2023-02-11T04:53:40;88.18;;;41.88;;
58123;SDS011;46725;48.068;20.832;2023-02-11T04:56:06;100.35;;;43.03;;
58123;SDS011;46725;48.068;20.832;2023-02-11T04:58:33;93.82;;;39.05;;
58123;SDS011;46725;48.068;20.832;2023-02-11T05:01:09;83.20;;;37.97;;
58123;SDS011;46725;48.068;20.832;2023-02-11T05:03:35;101.22;;;40.72;;
58123;SDS011;46725;48.068;20.832;2023-02-11T05:06:02;95.40;;;40.47;;
58123;SDS011;46725;48.068;20.832;2023-02-11T05:08:28;95.45;;;40.83;;
58123;SDS011;46725;48.068;20.832;2023-02-11T05:10:54;87.53;;;38.80;;
58123;SDS011;46725;48.068;20.832;2023-02-11T05:13:20;103.93;;;41.00;;
58123;SDS011;46725;48.068;20.832;2023-02-11T05:15:46;93.55;;;42.20;;
58123;SDS011;46725;48.068;20.832;2023-02-11T05:18:12;102.70;;;42.20;;
58123;SDS011;46725;48.068;20.832;2023-02-11T05:20:39;110.65;;;45.63;;
58123;SDS011;46725;48.068;20.832;2023-02-11T05:23:05;89.95;;;41.63;;
58123;SDS011;46725;48.068;20.832;2023-02-11T05:25:31;90.72;;;40.42;;
58123;SDS011;46725;48.068;20.832;2023-02-11T05:27:58;96.20;;;42.60;;
58123;SDS011;46725;48.068;20.832;2023-02-11T05:30:24;96.88;;;40.63;;
58123;SDS011;46725;48.068;20.832;2023-02-11T05:32:50;96.15;;;41.33;;
58123;SDS011;46725;48.068;20.832;2023-02-11T05:35:16;90.90;;;41.42;;
58123;SDS011;46725;48.068;20.832;2023-02-11T05:37:42;102.43;;;39.80;;
58123;SDS011;46725;48.068;20.832;2023-02-11T05:40:09;101.20;;;41.03;;
58123;SDS011;46725;48.068;20.832;2023-02-11T05:42:35;104.70;;;41.95;;
58123;SDS011;46725;48.068;20.832;2023-02-11T05:45:01;100.05;;;40.88;;
58123;SDS011;46725;48.068;20.832;2023-02-11T05:47:27;110.85;;;42.08;;
58123;SDS011;46725;48.068;20.832;2023-02-11T05:49:53;100.72;;;40.85;;
58123;SDS011;46725;48.068;20.832;2023-02-11T05:52:20;87.57;;;37.10;;
58123;SDS011;46725;48.068;20.832;2023-02-11T05:54:46;108.97;;;41.95;;
58123;SDS011;46725;48.068;20.832;2023-02-11T05:57:12;97.63;;;39.67;;
58123;SDS011;46725;48.068;20.832;2023-02-11T05:59:39;99.72;;;39.75;;
58123;SDS011;46725;48.068;20.832;2023-02-11T06:02:05;96.18;;;39.28;;
58123;SDS011;46725;48.068;20.832;2023-02-11T06:04:32;93.68;;;39.75;;
58123;SDS011;46725;48.068;20.832;2023-02-11T06:06:58;90.03;;;37.58;;
58123;SDS011;46725;48.068;20.832;2023-02-11T06:09:25;90.28;;;39.42;;
58123;SDS011;46725;48.068;20.832;2023-02-11T06:11:51;96.00;;;40.63;;
58123;SDS011;46725;48.068;20.832;2023-02-11T06:14:17;91.35;;;38.10;;
58123;SDS011;46725;48.068;20.832;2023-02-11T06:16:43;97.20;;;40.95;;
58123;SDS011;46725;48.068;20.832;2023-02-11T06:19:10;98.05;;;41.63;;
58123;SDS011;46725;48.068;20.832;2023-02-11T06:21:36;90.97;;;39.45;;
58123;SDS011;46725;48.068;20.832;2023-02-11T06:24:03;96.15;;;39.40;;
58123;SDS011;46725;48.068;20.832;2023-02-11T06:26:29;91.80;;;39.58;;
58123;SDS011;46725;48.068;20.832;2023-02-11T06:28:58;89.38;;;39.75;;
58123;SDS011;46725;48.068;20.832;2023-02-11T06:31:24;96.38;;;40.67;;
58123;SDS011;46725;48.068;20.832;2023-02-11T06:33:50;88.20;;;39.70;;
58123;SDS011;46725;48.068;20.832;2023-02-11T06:36:19;92.50;;;38.50;;
58123;SDS011;46725;48.068;20.832;2023-02-11T06:38:46;96.68;;;41.25;;
58123;SDS011;46725;48.068;20.832;2023-02-11T06:41:13;98.05;;;39.70;;
58123;SDS011;46725;48.068;20.832;2023-02-11T06:43:39;99.88;;;39.33;;
58123;SDS011;46725;48.068;20.832;2023-02-11T06:46:05;91.30;;;39.30;;
58123;SDS011;46725;48.068;20.832;2023-02-11T06:48:32;92.32;;;39.00;;
58123;SDS011;46725;48.068;20.832;2023-02-11T06:51:01;95.35;;;41.75;;
58123;SDS011;46725;48.068;20.832;2023-02-11T06:53:28;113.53;;;46.33;;
58123;SDS011;46725;48.068;20.832;2023-02-11T06:55:54;198.18;;;62.65;;
58123;SDS011;46725;48.068;20.832;2023-02-11T06:58:20;124.13;;;50.22;;
58123;SDS011;46725;48.068;20.832;2023-02-11T07:00:46;102.30;;;44.67;;
58123;SDS011;46725;48.068;20.832;2023-02-11T07:03:12;111.65;;;48.50;;
58123;SDS011;46725;48.068;20.832;2023-02-11T07:05:41;110.15;;;47.08;;
58123;SDS011;46725;48.068;20.832;2023-02-11T07:08:07;117.32;;;49.38;;
58123;SDS011;46725;48.068;20.832;2023-02-11T07:10:33;107.18;;;46.25;;
58123;SDS011;46725;48.068;20.832;2023-02-11T07:12:59;109.78;;;48.95;;
58123;SDS011;46725;48.068;20.832;2023-02-11T07:15:25;111.88;;;49.05;;
58123;SDS011;46725;48.068;20.832;2023-02-11T07:17:51;111.47;;;51.20;;
58123;SDS011;46725;48.068;20.832;2023-02-11T07:20:17;133.57;;;55.67;;
58123;SDS011;46725;48.068;20.832;2023-02-11T07:22:43;126.18;;;52.80;;
58123;SDS011;46725;48.068;20.832;2023-02-11T07:25:09;127.05;;;49.22;;
58123;SDS011;46725;48.068;20.832;2023-02-11T07:27:35;102.35;;;45.00;;
58123;SDS011;46725;48.068;20.832;2023-02-11T07:30:02;104.93;;;47.15;;
58123;SDS011;46725;48.068;20.832;2023-02-11T07:32:28;93.55;;;40.30;;
58123;SDS011;46725;48.068;20.832;2023-02-11T07:34:54;99.03;;;44.30;;
58123;SDS011;46725;48.068;20.832;2023-02-11T07:37:20;81.50;;;38.35;;
58123;SDS011;46725;48.068;20.832;2023-02-11T07:39:46;79.05;;;38.63;;
58123;SDS011;46725;48.068;20.832;2023-02-11T07:42:12;85.13;;;36.90;;
58123;SDS011;46725;48.068;20.832;2023-02-11T07:44:38;81.72;;;39.28;;
58123;SDS011;46725;48.068;20.832;2023-02-11T07:47:04;93.03;;;41.25;;
58123;SDS011;46725;48.068;20.832;2023-02-11T07:49:30;100.57;;;44.83;;
58123;SDS011;46725;48.068;20.832;2023-02-11T07:51:56;100.45;;;43.42;;
58123;SDS011;46725;48.068;20.832;2023-02-11T07:54:23;90.80;;;39.83;;
58123;SDS011;46725;48.068;20.832;2023-02-11T07:56:49;90.47;;;39.72;;
58123;SDS011;46725;48.068;20.832;2023-02-11T07:59:15;80.80;;;39.22;;
58123;SDS011;46725;48.068;20.832;2023-02-11T08:01:41;81.35;;;38.33;;
58123;SDS011;46725;48.068;20.832;2023-02-11T08:04:07;94.07;;;40.60;;
58123;SDS011;46725;48.068;20.832;2023-02-11T08:06:33;85.28;;;38.85;;
58123;SDS011;46725;48.068;20.832;2023-02-11T08:09:03;89.50;;;39.63;;
58123;SDS011;46725;48.068;20.832;2023-02-11T08:11:31;89.45;;;41.40;;
58123;SDS011;46725;48.068;20.832;2023-02-11T08:13:57;87.47;;;39.17;;
58123;SDS011;46725;48.068;20.832;2023-02-11T08:18:50;85.28;;;39.35;;
58123;SDS011;46725;48.068;20.832;2023-02-11T08:21:16;83.43;;;38.88;;
58123;SDS011;46725;48.068;20.832;2023-02-11T08:23:43;75.00;;;37.17;;
58123;SDS011;46725;48.068;20.832;2023-02-11T08:26:13;92.85;;;39.92;;
58123;SDS011;46725;48.068;20.832;2023-02-11T08:28:41;78.07;;;36.88;;
58123;SDS011;46725;48.068;20.832;2023-02-11T08:31:08;80.60;;;34.47;;
58123;SDS011;46725;48.068;20.832;2023-02-11T08:33:34;82.88;;;33.85;;
58123;SDS011;46725;48.068;20.832;2023-02-11T08:36:01;83.05;;;35.67;;
58123;SDS011;46725;48.068;20.832;2023-02-11T08:38:32;84.53;;;36.78;;
58123;SDS011;46725;48.068;20.832;2023-02-11T08:40:58;87.00;;;38.88;;
58123;SDS011;46725;48.068;20.832;2023-02-11T08:43:24;88.43;;;40.42;;
58123;SDS011;46725;48.068;20.832;2023-02-11T08:45:50;102.05;;;45.70;;
58123;SDS011;46725;48.068;20.832;2023-02-11T08:48:17;96.38;;;44.65;;
58123;SDS011;46725;48.068;20.832;2023-02-11T08:50:43;104.13;;;45.30;;
58123;SDS011;46725;48.068;20.832;2023-02-11T08:53:09;102.15;;;46.58;;
58123;SDS011;46725;48.068;20.832;2023-02-11T08:55:35;102.38;;;45.30;;
58123;SDS011;46725;48.068;20.832;2023-02-11T08:58:01;102.78;;;46.90;;
58123;SDS011;46725;48.068;20.832;2023-02-11T09:00:27;91.60;;;45.90;;
58123;SDS011;46725;48.068;20.832;2023-02-11T09:02:53;108.47;;;50.00;;
58123;SDS011;46725;48.068;20.832;2023-02-11T09:05:19;100.93;;;48.38;;
58123;SDS011;46725;48.068;20.832;2023-02-11T09:07:46;107.22;;;46.08;;
58123;SDS011;46725;48.068;20.832;2023-02-11T09:10:12;102.60;;;46.85;;
58123;SDS011;46725;48.068;20.832;2023-02-11T09:12:39;93.10;;;46.55;;
58123;SDS011;46725;48.068;20.832;2023-02-11T09:15:05;104.10;;;47.92;;
58123;SDS011;46725;48.068;20.832;2023-02-11T09:17:31;110.28;;;49.38;;
58123;SDS011;46725;48.068;20.832;2023-02-11T09:19:57;100.68;;;47.28;;
58123;SDS011;46725;48.068;20.832;2023-02-11T09:22:23;98.88;;;47.33;;
58123;SDS011;46725;48.068;20.832;2023-02-11T09:24:49;100.72;;;46.70;;
58123;SDS011;46725;48.068;20.832;2023-02-11T09:27:15;111.03;;;47.72;;
58123;SDS011;46725;48.068;20.832;2023-02-11T09:29:41;99.28;;;44.45;;
58123;SDS011;46725;48.068;20.832;2023-02-11T09:32:07;103.53;;;46.75;;
58123;SDS011;46725;48.068;20.832;2023-02-11T09:34:33;92.32;;;43.22;;
58123;SDS011;46725;48.068;20.832;2023-02-11T09:37:00;97.00;;;45.53;;
58123;SDS011;46725;48.068;20.832;2023-02-11T09:39:26;91.60;;;42.75;;
58123;SDS011;46725;48.068;20.832;2023-02-11T09:44:38;95.32;;;44.75;;
58123;SDS011;46725;48.068;20.832;2023-02-11T09:49:40;81.63;;;40.72;;
58123;SDS011;46725;48.068;20.832;2023-02-11T09:52:11;107.35;;;48.80;;
58123;SDS011;46725;48.068;20.832;2023-02-11T09:54:49;88.77;;;44.03;;
58123;SDS011;46725;48.068;20.832;2023-02-11T09:57:18;94.47;;;44.63;;
58123;SDS011;46725;48.068;20.832;2023-02-11T09:59:44;130.77;;;53.42;;
58123;SDS011;46725;48.068;20.832;2023-02-11T10:02:22;107.72;;;50.40;;
58123;SDS011;46725;48.068;20.832;2023-02-11T10:15:20;92.93;;;45.13;;
58123;SDS011;46725;48.068;20.832;2023-02-11T10:22:50;96.05;;;45.03;;
58123;SDS011;46725;48.068;20.832;2023-02-11T10:27:50;84.78;;;41.95;;
58123;SDS011;46725;48.068;20.832;2023-02-11T10:30:27;93.00;;;44.05;;
58123;SDS011;46725;48.068;20.832;2023-02-11T10:35:21;96.68;;;46.63;;
58123;SDS011;46725;48.068;20.832;2023-02-11T10:37:48;96.30;;;48.08;;
58123;SDS011;46725;48.068;20.832;2023-02-11T10:40:19;96.45;;;47.08;;
58123;SDS011;46725;48.068;20.832;2023-02-11T10:42:47;101.50;;;47.50;;
58123;SDS011;46725;48.068;20.832;2023-02-11T10:45:18;97.10;;;47.15;;
58123;SDS011;46725;48.068;20.832;2023-02-11T10:47:46;104.53;;;52.10;;
58123;SDS011;46725;48.068;20.832;2023-02-11T10:52:44;98.28;;;47.25;;
58123;SDS011;46725;48.068;20.832;2023-02-11T10:55:17;99.15;;;48.25;;
58123;SDS011;46725;48.068;20.832;2023-02-11T10:57:54;104.28;;;47.72;;
58123;SDS011;46725;48.068;20.832;2023-02-11T11:02:58;99.15;;;48.08;;
58123;SDS011;46725;48.068;20.832;2023-02-11T11:05:35;88.13;;;45.17;;
58123;SDS011;46725;48.068;20.832;2023-02-11T11:08:05;98.07;;;46.40;;
58123;SDS011;46725;48.068;20.832;2023-02-11T11:10:36;99.70;;;47.38;;
58123;SDS011;46725;48.068;20.832;2023-02-11T11:13:23;90.72;;;45.70;;
58123;SDS011;46725;48.068;20.832;2023-02-11T11:18:34;103.60;;;47.15;;
58123;SDS011;46725;48.068;20.832;2023-02-11T11:21:02;95.65;;;49.55;;
58123;SDS011;46725;48.068;20.832;2023-02-11T11:23:30;101.63;;;50.60;;
58123;SDS011;46725;48.068;20.832;2023-02-11T11:26:03;111.00;;;52.60;;
58123;SDS011;46725;48.068;20.832;2023-02-11T11:28:31;94.80;;;49.67;;
58123;SDS011;46725;48.068;20.832;2023-02-11T11:30:59;103.90;;;49.25;;
58123;SDS011;46725;48.068;20.832;2023-02-11T11:33:28;103.47;;;50.97;;
58123;SDS011;46725;48.068;20.832;2023-02-11T11:38:25;102.85;;;48.92;;
58123;SDS011;46725;48.068;20.832;2023-02-11T11:43:37;96.97;;;48.22;;
58123;SDS011;46725;48.068;20.832;2023-02-11T11:46:03;92.22;;;46.40;;
58123;SDS011;46725;48.068;20.832;2023-02-11T11:51:01;91.38;;;44.88;;
58123;SDS011;46725;48.068;20.832;2023-02-11T11:56:13;86.70;;;42.53;;
58123;SDS011;46725;48.068;20.832;2023-02-11T11:58:41;84.97;;;41.22;;
58123;SDS011;46725;48.068;20.832;2023-02-11T12:03:57;88.93;;;44.00;;
58123;SDS011;46725;48.068;20.832;2023-02-11T12:09:08;99.57;;;49.13;;
58123;SDS011;46725;48.068;20.832;2023-02-11T12:17:02;87.00;;;43.35;;
58123;SDS011;46725;48.068;20.832;2023-02-11T12:19:40;87.57;;;43.95;;
58123;SDS011;46725;48.068;20.832;2023-02-11T12:22:11;89.40;;;43.90;;
58123;SDS011;46725;48.068;20.832;2023-02-11T12:37:40;76.45;;;38.72;;
58123;SDS011;46725;48.068;20.832;2023-02-11T12:46:26;78.25;;;38.33;;
58123;SDS011;46725;48.068;20.832;2023-02-11T12:55:57;67.60;;;35.08;;
58123;SDS011;46725;48.068;20.832;2023-02-11T12:58:26;81.18;;;39.35;;
58123;SDS011;46725;48.068;20.832;2023-02-11T13:00:54;80.95;;;42.05;;
58123;SDS011;46725;48.068;20.832;2023-02-11T13:03:23;76.18;;;38.75;;
58123;SDS011;46725;48.068;20.832;2023-02-11T13:05:51;68.68;;;36.45;;
58123;SDS011;46725;48.068;20.832;2023-02-11T13:08:20;71.95;;;36.53;;
58123;SDS011;46725;48.068;20.832;2023-02-11T13:10:49;67.82;;;34.15;;
58123;SDS011;46725;48.068;20.832;2023-02-11T13:13:18;73.88;;;37.28;;
58123;SDS011;46725;48.068;20.832;2023-02-11T13:15:47;64.13;;;33.30;;
58123;SDS011;46725;48.068;20.832;2023-02-11T13:18:23;57.22;;;28.00;;
58123;SDS011;46725;48.068;20.832;2023-02-11T13:23:58;60.58;;;29.48;;
58123;SDS011;46725;48.068;20.832;2023-02-11T13:26:36;54.08;;;27.83;;
58123;SDS011;46725;48.068;20.832;2023-02-11T13:31:55;51.47;;;27.75;;
58123;SDS011;46725;48.068;20.832;2023-02-11T13:37:24;55.28;;;27.60;;
58123;SDS011;46725;48.068;20.832;2023-02-11T13:42:24;53.40;;;26.73;;
58123;SDS011;46725;48.068;20.832;2023-02-11T13:44:50;55.10;;;28.00;;
58123;SDS011;46725;48.068;20.832;2023-02-11T13:47:24;50.97;;;26.13;;
58123;SDS011;46725;48.068;20.832;2023-02-11T13:49:52;49.47;;;25.30;;
58123;SDS011;46725;48.068;20.832;2023-02-11T13:52:25;52.30;;;25.85;;
58123;SDS011;46725;48.068;20.832;2023-02-11T13:54:52;55.08;;;27.60;;
58123;SDS011;46725;48.068;20.832;2023-02-11T14:02:22;52.28;;;25.95;;
58123;SDS011;46725;48.068;20.832;2023-02-11T14:11:41;47.88;;;24.42;;
58123;SDS011;46725;48.068;20.832;2023-02-11T14:16:16;49.35;;;26.25;;
58123;SDS011;46725;48.068;20.832;2023-02-11T14:23:45;50.13;;;25.08;;
58123;SDS011;46725;48.068;20.832;2023-02-11T14:28:40;44.47;;;22.92;;
58123;SDS011;46725;48.068;20.832;2023-02-11T14:31:17;47.90;;;25.40;;
58123;SDS011;46725;48.068;20.832;2023-02-11T14:41:25;51.03;;;24.67;;
58123;SDS011;46725;48.068;20.832;2023-02-11T14:43:54;52.90;;;25.67;;
58123;SDS011;46725;48.068;20.832;2023-02-11T14:46:21;50.60;;;25.15;;
58123;SDS011;46725;48.068;20.832;2023-02-11T14:48:48;56.42;;;24.60;;
58123;SDS011;46725;48.068;20.832;2023-02-11T14:51:17;47.53;;;25.73;;
58123;SDS011;46725;48.068;20.832;2023-02-11T14:53:58;47.78;;;25.52;;
58123;SDS011;46725;48.068;20.832;2023-02-11T14:56:27;48.50;;;24.15;;
58123;SDS011;46725;48.068;20.832;2023-02-11T14:58:55;49.67;;;24.55;;
58123;SDS011;46725;48.068;20.832;2023-02-11T15:01:23;58.60;;;28.20;;
58123;SDS011;46725;48.068;20.832;2023-02-11T15:03:51;54.40;;;28.63;;
58123;SDS011;46725;48.068;20.832;2023-02-11T15:06:24;52.95;;;27.88;;
58123;SDS011;46725;48.068;20.832;2023-02-11T15:08:56;71.22;;;31.60;;
58123;SDS011;46725;48.068;20.832;2023-02-11T15:11:24;53.60;;;28.42;;
58123;SDS011;46725;48.068;20.832;2023-02-11T15:13:51;73.50;;;37.47;;
58123;SDS011;46725;48.068;20.832;2023-02-11T15:16:19;91.13;;;44.20;;
58123;SDS011;46725;48.068;20.832;2023-02-11T15:18:47;118.97;;;52.53;;
58123;SDS011;46725;48.068;20.832;2023-02-11T15:21:19;143.23;;;64.43;;
58123;SDS011;46725;48.068;20.832;2023-02-11T15:23:53;111.00;;;54.70;;
58123;SDS011;46725;48.068;20.832;2023-02-11T15:26:20;105.68;;;48.83;;
58123;SDS011;46725;48.068;20.832;2023-02-11T15:28:46;110.18;;;53.63;;
58123;SDS011;46725;48.068;20.832;2023-02-11T15:31:16;98.20;;;49.92;;
58123;SDS011;46725;48.068;20.832;2023-02-11T15:33:43;114.57;;;54.67;;
58123;SDS011;46725;48.068;20.832;2023-02-11T15:36:13;112.50;;;52.45;;
58123;SDS011;46725;48.068;20.832;2023-02-11T15:38:39;112.43;;;52.47;;
58123;SDS011;46725;48.068;20.832;2023-02-11T15:41:06;98.50;;;49.70;;
58123;SDS011;46725;48.068;20.832;2023-02-11T15:43:45;101.28;;;49.92;;
58123;SDS011;46725;48.068;20.832;2023-02-11T15:46:21;91.90;;;44.17;;
58123;SDS011;46725;48.068;20.832;2023-02-11T15:48:51;93.13;;;45.15;;
58123;SDS011;46725;48.068;20.832;2023-02-11T15:51:19;92.55;;;43.47;;
58123;SDS011;46725;48.068;20.832;2023-02-11T15:53:55;100.22;;;45.90;;
58123;SDS011;46725;48.068;20.832;2023-02-11T15:56:24;104.63;;;48.95;;
58123;SDS011;46725;48.068;20.832;2023-02-11T15:58:53;104.75;;;47.58;;
58123;SDS011;46725;48.068;20.832;2023-02-11T16:01:33;113.38;;;53.95;;
58123;SDS011;46725;48.068;20.832;2023-02-11T16:04:00;124.30;;;52.58;;
58123;SDS011;46725;48.068;20.832;2023-02-11T16:06:37;105.70;;;49.60;;
58123;SDS011;46725;48.068;20.832;2023-02-11T16:11:36;92.22;;;44.28;;
58123;SDS011;46725;48.068;20.832;2023-02-11T16:14:23;83.38;;;40.97;;
58123;SDS011;46725;48.068;20.832;2023-02-11T16:17:20;84.72;;;39.15;;
58123;SDS011;46725;48.068;20.832;2023-02-11T16:19:47;77.05;;;38.42;;
58123;SDS011;46725;48.068;20.832;2023-02-11T16:22:15;81.32;;;41.22;;
58123;SDS011;46725;48.068;20.832;2023-02-11T16:24:44;82.28;;;40.63;;
58123;SDS011;46725;48.068;20.832;2023-02-11T16:27:17;86.25;;;40.35;;
58123;SDS011;46725;48.068;20.832;2023-02-11T16:29:46;78.38;;;38.15;;
58123;SDS011;46725;48.068;20.832;2023-02-11T16:34:42;83.55;;;39.42;;
58123;SDS011;46725;48.068;20.832;2023-02-11T16:37:08;86.90;;;42.10;;
58123;SDS011;46725;48.068;20.832;2023-02-11T16:39:34;91.47;;;43.10;;
58123;SDS011;46725;48.068;20.832;2023-02-11T16:42:01;133.63;;;57.25;;
58123;SDS011;46725;48.068;20.832;2023-02-11T16:44:27;153.75;;;66.60;;
58123;SDS011;46725;48.068;20.832;2023-02-11T16:46:54;165.48;;;70.93;;
58123;SDS011;46725;48.068;20.832;2023-02-11T16:49:44;134.77;;;57.40;;